createdAt,value
2023-04-23T00:00:23.360Z,100025.25
2023-04-23T00:03:10.157Z,100026.41
2023-04-23T00:05:58.142Z,100018.00
2023-04-23T00:08:43.492Z,100019.13
2023-04-23T00:11:28.709Z,100019.28
2023-04-23T00:14:14.090Z,100026.41
2023-04-23T00:16:59.540Z,100021.94
2023-04-23T00:19:44.344Z,100021.78
2023-04-23T00:22:29.510Z,100022.22
2023-04-23T00:25:14.607Z,100017.53
2023-04-23T00:28:00.050Z,100017.94
2023-04-23T00:30:46.281Z,100008.72
2023-04-23T00:33:31.508Z,100016.75
2023-04-23T00:36:16.285Z,100014.06
2023-04-23T00:39:01.221Z,100019.31
2023-04-23T00:41:46.204Z,100013.44
2023-04-23T00:44:31.124Z,100007.69
2023-04-23T00:47:16.474Z,100007.16
2023-04-23T00:50:02.395Z,100013.84
2023-04-23T00:52:47.308Z,100008.00
2023-04-23T00:55:33.035Z,100008.38
2023-04-23T00:58:18.620Z,100013.28
2023-04-23T01:01:04.664Z,100008.28
2023-04-23T01:03:53.531Z,100015.47
2023-04-23T01:06:38.875Z,100010.66
2023-04-23T01:09:27.931Z,100006.66
2023-04-23T01:12:15.260Z,100012.59
2023-04-23T01:15:00.402Z,100003.19
2023-04-23T01:17:45.748Z,100012.91
2023-04-23T01:20:30.551Z,100012.25
2023-04-23T01:23:16.745Z,100014.25
2023-04-23T01:26:01.800Z,100017.72
2023-04-23T01:28:47.562Z,100009.69
2023-04-23T01:31:32.637Z,100007.31
2023-04-23T01:34:18.992Z,100005.69
2023-04-23T01:37:04.440Z,100006.44
2023-04-23T01:39:49.854Z,100006.66
2023-04-23T01:42:34.851Z,100006.97
2023-04-23T01:45:19.857Z,100000.19
2023-04-23T01:48:05.308Z,100004.09
2023-04-23T01:50:51.313Z,100008.91
2023-04-23T01:53:36.609Z,100006.19
2023-04-23T01:56:25.730Z,100001.78
2023-04-23T01:59:11.174Z,100001.59
2023-04-23T02:01:56.362Z,100003.91
2023-04-23T02:04:44.653Z,99992.94
2023-04-23T02:07:31.595Z,100002.41
2023-04-23T02:10:17.899Z,99997.47
2023-04-23T02:13:03.452Z,99999.53
2023-04-23T02:15:48.646Z,100004.72
2023-04-23T02:18:34.661Z,100005.09
2023-04-23T02:21:19.759Z,100004.34
2023-04-23T02:24:05.654Z,100003.50
2023-04-23T02:26:50.451Z,100001.16
2023-04-23T02:29:37.763Z,100005.28
2023-04-23T02:32:22.923Z,100003.22
2023-04-23T02:35:09.640Z,100005.06
2023-04-23T02:37:54.667Z,99997.66
2023-04-23T02:40:39.876Z,100005.00
2023-04-23T02:43:24.936Z,100003.22
2023-04-23T02:46:10.065Z,100015.19
2023-04-23T02:48:55.299Z,100002.69
2023-04-23T02:51:40.395Z,100010.91
2023-04-23T02:54:25.747Z,100008.53
2023-04-23T02:57:12.693Z,100004.56
2023-04-23T02:59:57.580Z,100001.53
2023-04-23T03:02:42.630Z,100001.31
2023-04-23T03:05:27.952Z,100006.84
2023-04-23T03:08:13.064Z,100009.53
2023-04-23T03:10:58.481Z,100028.81
2023-04-23T03:13:43.535Z,100026.97
2023-04-23T03:16:30.385Z,100027.66
2023-04-23T03:19:15.690Z,100033.13
2023-04-23T03:22:03.615Z,100035.25
2023-04-23T03:24:49.284Z,100038.34
2023-04-23T03:27:34.377Z,100033.06
2023-04-23T03:30:20.576Z,100032.16
2023-04-23T03:33:05.509Z,100033.34
2023-04-23T03:35:50.680Z,100035.25
2023-04-23T03:38:35.587Z,100029.09
2023-04-23T03:41:20.549Z,100035.69
2023-04-23T03:44:05.447Z,100040.34
2023-04-23T03:46:52.077Z,100039.09
2023-04-23T03:49:36.998Z,100035.22
2023-04-23T03:52:22.123Z,100024.69
2023-04-23T03:55:08.911Z,100029.88
2023-04-23T03:57:54.768Z,100028.91
2023-04-23T04:00:39.623Z,100031.03
2023-04-23T04:03:25.307Z,100033.72
2023-04-23T04:06:10.883Z,100037.19
2023-04-23T04:08:56.217Z,100047.22
2023-04-23T04:11:41.222Z,100046.56
2023-04-23T04:14:26.035Z,100045.06
2023-04-23T04:17:12.708Z,100049.31
2023-04-23T04:19:57.617Z,100059.66
2023-04-23T04:22:42.851Z,100062.16
2023-04-23T04:25:28.840Z,100067.78
2023-04-23T04:28:15.621Z,100067.06
2023-04-23T04:31:00.496Z,100064.34
2023-04-23T04:33:46.256Z,100067.78
2023-04-23T04:36:32.163Z,100068.41
2023-04-23T04:39:17.810Z,100066.34
2023-04-23T04:42:04.588Z,100074.97
2023-04-23T04:44:49.573Z,100074.28
2023-04-23T04:47:34.971Z,100074.78
2023-04-23T04:50:19.836Z,100069.09
2023-04-23T04:53:05.107Z,100077.13
2023-04-23T04:55:49.902Z,100073.03
2023-04-23T04:58:35.059Z,100079.53
2023-04-23T05:01:21.404Z,100088.25
2023-04-23T05:04:06.585Z,100080.72
2023-04-23T05:06:51.706Z,100092.81
2023-04-23T05:09:37.217Z,100093.00
2023-04-23T05:12:22.964Z,100096.03
2023-04-23T05:15:09.564Z,100105.56
2023-04-23T05:17:55.087Z,100106.22
2023-04-23T05:20:41.487Z,100103.72
2023-04-23T05:23:26.592Z,100105.13
2023-04-23T05:26:11.571Z,100105.19
2023-04-23T05:28:56.880Z,100111.28
2023-04-23T05:31:41.763Z,100112.34
2023-04-23T05:34:26.547Z,100113.63
2023-04-23T05:37:11.344Z,100117.69
2023-04-23T05:39:57.852Z,100122.94
2023-04-23T05:42:43.013Z,100124.72
2023-04-23T05:45:28.353Z,100126.50
2023-04-23T05:48:13.491Z,100131.56
2023-04-23T05:50:59.712Z,100139.81
2023-04-23T05:53:44.877Z,100143.16
2023-04-23T05:56:30.040Z,100141.56
2023-04-23T05:59:15.030Z,100139.41
2023-04-23T06:02:00.294Z,100146.34
2023-04-23T06:04:46.323Z,100147.38
2023-04-23T06:07:32.355Z,100150.72
2023-04-23T06:10:17.513Z,100149.19
2023-04-23T06:13:03.964Z,100159.06
2023-04-23T06:15:48.980Z,100161.75
2023-04-23T06:18:34.077Z,100159.34
2023-04-23T06:21:20.521Z,100158.00
2023-04-23T06:24:07.734Z,100163.78
2023-04-23T06:26:52.807Z,100156.22
2023-04-23T06:29:37.815Z,100156.66
2023-04-23T06:32:23.287Z,100158.81
2023-04-23T06:35:09.295Z,100158.84
2023-04-23T06:37:54.213Z,100166.81
2023-04-23T06:40:40.174Z,100153.53
2023-04-23T06:43:25.002Z,100170.63
2023-04-23T06:46:10.496Z,100161.03
2023-04-23T06:48:55.360Z,100178.66
2023-04-23T06:51:40.279Z,100173.31
2023-04-23T06:54:25.830Z,100170.09
2023-04-23T06:57:10.983Z,100175.97
2023-04-23T06:59:56.300Z,100183.19
2023-04-23T07:02:41.047Z,100179.91
2023-04-23T07:05:26.219Z,100181.88
2023-04-23T07:08:11.142Z,100183.75
2023-04-23T07:10:56.387Z,100183.44
2023-04-23T07:13:42.161Z,100173.75
2023-04-23T07:16:30.239Z,100177.44
2023-04-23T07:19:15.150Z,100176.72
2023-04-23T07:22:00.262Z,100172.00
2023-04-23T07:24:45.909Z,100176.09
2023-04-23T07:27:31.110Z,100174.13
2023-04-23T07:30:17.504Z,100173.06
2023-04-23T07:33:02.619Z,100168.91
2023-04-23T07:35:48.147Z,100163.38
2023-04-23T07:38:32.893Z,100162.09
2023-04-23T07:41:18.480Z,100152.56
2023-04-23T07:44:03.361Z,100156.53
2023-04-23T07:46:49.262Z,100160.69
2023-04-23T07:49:33.981Z,100164.56
2023-04-23T07:52:19.491Z,100163.44
2023-04-23T07:55:05.501Z,100166.38
2023-04-23T07:57:50.794Z,100160.91
2023-04-23T08:00:35.933Z,100162.25
2023-04-23T08:03:21.024Z,100167.78
2023-04-23T08:06:06.604Z,100163.13
2023-04-23T08:08:52.310Z,100150.72
2023-04-23T08:11:39.048Z,100140.34
2023-04-23T08:14:24.014Z,100146.56
2023-04-23T08:17:08.942Z,100147.78
2023-04-23T08:19:53.773Z,100141.94
2023-04-23T08:22:40.569Z,100140.22
2023-04-23T08:25:25.653Z,100148.47
2023-04-23T08:28:11.050Z,100152.06
2023-04-23T08:30:58.943Z,100152.44
2023-04-23T08:33:44.195Z,100159.50
2023-04-23T08:36:29.482Z,100152.22
2023-04-23T08:39:14.454Z,100145.91
2023-04-23T08:42:08.156Z,100146.59
2023-04-23T08:44:54.063Z,100147.72
2023-04-23T08:47:43.974Z,100151.38
2023-04-23T08:50:31.191Z,100143.81
2023-04-23T08:53:20.054Z,100144.25
2023-04-23T08:56:06.689Z,100152.09
2023-04-23T08:58:51.810Z,100146.03
2023-04-23T09:01:37.761Z,100139.16
2023-04-23T09:04:23.728Z,100135.88
2023-04-23T09:07:11.669Z,100138.47
2023-04-23T09:09:56.933Z,100140.41
2023-04-23T09:12:44.509Z,100139.63
2023-04-23T09:15:29.366Z,100137.78
2023-04-23T09:18:15.720Z,100131.91
2023-04-23T09:21:01.497Z,100130.34
2023-04-23T09:23:46.757Z,100124.78
2023-04-23T09:26:31.693Z,100131.19
2023-04-23T09:29:19.302Z,100121.88
2023-04-23T09:32:10.073Z,100130.34
2023-04-23T09:34:56.823Z,100130.19
2023-04-23T09:37:44.603Z,100128.31
2023-04-23T09:40:30.469Z,100120.19
2023-04-23T09:43:18.541Z,100124.34
2023-04-23T09:46:03.660Z,100124.00
2023-04-23T09:48:48.851Z,100128.88
2023-04-23T09:51:46.076Z,100124.44
2023-04-23T09:54:32.571Z,100119.22
2023-04-23T09:57:17.593Z,100115.81
2023-04-23T10:00:19.502Z,100109.91
2023-04-23T10:03:07.664Z,100116.16
2023-04-23T10:06:01.228Z,100109.63
2023-04-23T10:08:47.300Z,100117.66
2023-04-23T10:11:32.573Z,100106.13
2023-04-23T10:14:18.581Z,100111.91
2023-04-23T10:17:05.071Z,100108.81
2023-04-23T10:19:50.812Z,100122.66
2023-04-23T10:22:37.993Z,100112.94
2023-04-23T10:25:24.385Z,100122.66
2023-04-23T10:28:11.651Z,100116.16
2023-04-23T10:30:57.296Z,100121.38
2023-04-23T10:33:55.948Z,100118.19
2023-04-23T10:36:45.722Z,100123.28
2023-04-23T10:39:35.546Z,100110.88
2023-04-23T10:42:22.578Z,100102.19
2023-04-23T10:45:31.370Z,100109.47
2023-04-23T10:48:17.137Z,100102.69
2023-04-23T10:51:21.306Z,100118.53
2023-04-23T10:54:09.717Z,100096.53
2023-04-23T10:57:00.507Z,100096.03
2023-04-23T10:59:56.288Z,100091.69
2023-04-23T11:02:44.876Z,100096.69
2023-04-23T11:05:31.158Z,100093.69
2023-04-23T11:08:19.846Z,100090.19
2023-04-23T11:11:09.101Z,100090.09
2023-04-23T11:13:54.228Z,100078.78
2023-04-23T11:16:40.300Z,100076.38
2023-04-23T11:19:25.344Z,100074.00
2023-04-23T11:22:19.172Z,100089.88
2023-04-23T11:25:08.376Z,100097.59
2023-04-23T11:27:56.173Z,100083.81
2023-04-23T11:30:41.364Z,100080.94
2023-04-23T11:33:28.392Z,100074.72
2023-04-23T11:36:15.543Z,100077.38
2023-04-23T11:39:03.023Z,100072.53
2023-04-23T11:41:49.846Z,100079.91
2023-04-23T11:44:38.072Z,100075.19
2023-04-23T11:47:26.039Z,100074.53
2023-04-23T11:50:11.772Z,100063.44
2023-04-23T11:52:57.279Z,100055.72
2023-04-23T11:55:44.016Z,100054.47
2023-04-23T11:58:28.923Z,100055.53
2023-04-23T12:01:13.871Z,100047.25
2023-04-23T12:03:59.180Z,100051.44
2023-04-23T12:06:46.774Z,100050.72
2023-04-23T12:09:33.471Z,100049.66
2023-04-23T12:12:18.239Z,100056.28
2023-04-23T12:15:07.568Z,100057.00
2023-04-23T12:18:09.116Z,100061.00
2023-04-23T12:20:54.700Z,100059.00
2023-04-23T12:23:42.324Z,100060.75
2023-04-23T12:26:27.228Z,100060.25
2023-04-23T12:29:14.098Z,100059.63
2023-04-23T12:32:00.279Z,100046.84
2023-04-23T12:34:55.938Z,100050.25
2023-04-23T12:37:41.847Z,100042.97
2023-04-23T12:40:27.102Z,100037.22
2023-04-23T12:43:12.024Z,100035.44
2023-04-23T12:45:57.285Z,100033.31
2023-04-23T12:48:42.183Z,100030.91
2023-04-23T12:51:27.165Z,100033.09
2023-04-23T12:54:12.311Z,100025.63
2023-04-23T12:56:58.678Z,100009.94
2023-04-23T12:59:43.894Z,100006.78
2023-04-23T13:02:30.439Z,100013.34
2023-04-23T13:05:15.462Z,100010.00
2023-04-23T13:08:00.234Z,100007.84
2023-04-23T13:10:45.064Z,100000.56
2023-04-23T13:13:29.924Z,99996.16
2023-04-23T13:16:15.656Z,99994.00
2023-04-23T13:19:00.764Z,99989.81
2023-04-23T13:21:45.583Z,99983.66
2023-04-23T13:24:30.792Z,99980.69
2023-04-23T13:27:16.307Z,99974.66
2023-04-23T13:30:01.267Z,99977.72
2023-04-23T13:32:46.226Z,99971.09
2023-04-23T13:35:31.180Z,99962.88
2023-04-23T13:38:17.720Z,99958.66
2023-04-23T13:41:02.942Z,99952.47
2023-04-23T13:43:48.186Z,99946.78
2023-04-23T13:46:33.938Z,99952.44
2023-04-23T13:49:19.338Z,99942.72
2023-04-23T13:52:06.680Z,99938.31
2023-04-23T13:54:55.457Z,99945.78
2023-04-23T13:57:40.838Z,99930.59
2023-04-23T14:00:27.876Z,99932.16
2023-04-23T14:03:13.076Z,99931.16
2023-04-23T14:05:58.630Z,99940.44
2023-04-23T14:08:43.976Z,99934.63
2023-04-23T14:11:28.954Z,99938.31
2023-04-23T14:14:14.061Z,99934.59
2023-04-23T14:16:58.918Z,99930.44
2023-04-23T14:19:44.566Z,99928.97
2023-04-23T14:22:30.420Z,99923.56
2023-04-23T14:25:43.842Z,99929.13
2023-04-23T14:28:35.245Z,99926.97
2023-04-23T14:31:20.903Z,99920.16
2023-04-23T14:34:06.219Z,99914.53
2023-04-23T14:36:52.885Z,99915.94
2023-04-23T14:39:38.563Z,99917.78
2023-04-23T14:42:23.830Z,99917.00
2023-04-23T14:45:09.028Z,99907.75
2023-04-23T14:47:54.046Z,99917.34
2023-04-23T14:50:39.195Z,99902.50
2023-04-23T14:53:24.109Z,99896.88
2023-04-23T14:56:08.922Z,99899.81
2023-04-23T14:58:53.835Z,99899.34
2023-04-23T15:01:38.931Z,99894.16
2023-04-23T15:04:24.434Z,99892.03
2023-04-23T15:07:09.640Z,99891.38
2023-04-23T15:09:54.749Z,99892.34
2023-04-23T15:12:39.816Z,99884.53
2023-04-23T15:15:44.312Z,99880.66
2023-04-23T15:18:30.182Z,99886.22
2023-04-23T15:21:15.656Z,99882.50
2023-04-23T15:24:00.722Z,99873.66
2023-04-23T15:26:46.225Z,99879.25
2023-04-23T15:29:32.426Z,99873.84
2023-04-23T15:32:17.184Z,99880.63
2023-04-23T15:35:02.367Z,99880.81
2023-04-23T15:37:48.590Z,99885.56
2023-04-23T15:40:42.228Z,99879.34
2023-04-23T15:43:27.171Z,99871.53
2023-04-23T15:46:12.089Z,99870.34
2023-04-23T15:48:56.970Z,99873.66
2023-04-23T15:51:42.023Z,99868.97
2023-04-23T15:54:27.219Z,99871.84
2023-04-23T15:57:12.331Z,99866.66
2023-04-23T15:59:57.526Z,99871.94
2023-04-23T16:02:45.212Z,99865.09
2023-04-23T16:05:35.801Z,99868.84
2023-04-23T16:08:21.270Z,99872.88
2023-04-23T16:11:07.179Z,99867.44
2023-04-23T16:13:52.286Z,99856.53
2023-04-23T16:16:38.979Z,99865.19
2023-04-23T16:19:24.391Z,99858.44
2023-04-23T16:22:11.916Z,99851.88
2023-04-23T16:24:57.011Z,99843.41
2023-04-23T16:27:42.091Z,99835.00
2023-04-23T16:30:27.327Z,99835.69
2023-04-23T16:33:12.656Z,99835.53
2023-04-23T16:35:59.390Z,99839.25
2023-04-23T16:38:47.326Z,99841.81
2023-04-23T16:41:33.878Z,99836.91
2023-04-23T16:44:19.503Z,99837.63
2023-04-23T16:47:04.696Z,99833.28
2023-04-23T16:49:49.540Z,99823.94
2023-04-23T16:52:34.836Z,99820.69
2023-04-23T16:55:19.847Z,99815.28
2023-04-23T16:58:05.845Z,99808.34
2023-04-23T17:00:50.930Z,99813.63
2023-04-23T17:03:36.987Z,99809.22
2023-04-23T17:06:28.164Z,99806.91
2023-04-23T17:09:13.046Z,99796.59
2023-04-23T17:11:59.076Z,99799.00
2023-04-23T17:14:44.399Z,99796.94
2023-04-23T17:17:32.754Z,99795.00
2023-04-23T17:20:17.700Z,99792.81
2023-04-23T17:23:02.712Z,99789.38
2023-04-23T17:25:47.771Z,99786.91
2023-04-23T17:28:32.812Z,99781.59
2023-04-23T17:31:18.100Z,99780.16
2023-04-23T17:34:03.335Z,99780.66
2023-04-23T17:36:50.589Z,99780.91
2023-04-23T17:39:36.862Z,99771.25
2023-04-23T17:42:22.046Z,99770.56
2023-04-23T17:45:07.547Z,99769.53
2023-04-23T17:47:52.676Z,99765.41
2023-04-23T17:50:39.334Z,99761.63
2023-04-23T17:53:24.902Z,99762.88
2023-04-23T17:56:10.101Z,99758.53
2023-04-23T17:58:55.841Z,99760.72
2023-04-23T18:01:43.975Z,99745.19
2023-04-23T18:04:33.082Z,99752.44
2023-04-23T18:07:21.092Z,99748.94
2023-04-23T18:10:08.869Z,99744.53
2023-04-23T18:12:55.997Z,99744.88
2023-04-23T18:15:41.974Z,99745.63
2023-04-23T18:18:29.750Z,99739.50
2023-04-23T18:21:17.555Z,99743.50
2023-04-23T18:24:05.110Z,99742.13
2023-04-23T18:26:51.944Z,99740.97
2023-04-23T18:29:39.687Z,99736.84
2023-04-23T18:32:34.353Z,99738.09
2023-04-23T18:35:25.559Z,99730.84
2023-04-23T18:38:23.251Z,99739.06
2023-04-23T18:41:09.785Z,99732.72
2023-04-23T18:43:54.895Z,99734.03
2023-04-23T18:46:40.233Z,99732.19
2023-04-23T18:49:43.691Z,99728.47
2023-04-23T18:52:28.890Z,99727.53
2023-04-23T18:55:16.548Z,99723.13
2023-04-23T18:58:02.911Z,99714.69
2023-04-23T19:00:48.622Z,99721.91
2023-04-23T19:03:34.013Z,99714.47
2023-04-23T19:06:22.422Z,99724.19
2023-04-23T19:09:10.289Z,99712.84
2023-04-23T19:11:58.074Z,99703.53
2023-04-23T19:14:42.869Z,99702.19
2023-04-23T19:17:27.882Z,99698.97
2023-04-23T19:20:15.541Z,99699.34
2023-04-23T19:23:00.653Z,99697.03
2023-04-23T19:25:45.833Z,99694.75
2023-04-23T19:28:32.385Z,99694.09
2023-04-23T19:31:17.393Z,99694.16
2023-04-23T19:34:03.032Z,99690.25
2023-04-23T19:36:48.284Z,99695.59
2023-04-23T19:39:33.338Z,99691.28
2023-04-23T19:42:19.319Z,99676.97
2023-04-23T19:45:05.894Z,99685.91
2023-04-23T19:47:53.362Z,99673.50
2023-04-23T19:50:39.935Z,99684.63
2023-04-23T19:53:26.506Z,99680.97
2023-04-23T19:56:13.120Z,99675.81
2023-04-23T19:59:01.395Z,99666.06
2023-04-23T20:01:49.842Z,99672.75
2023-04-23T20:04:36.155Z,99677.16
2023-04-23T20:07:21.231Z,99672.16
2023-04-23T20:10:08.013Z,99670.41
2023-04-23T20:12:53.097Z,99655.03
2023-04-23T20:15:39.562Z,99664.66
2023-04-23T20:18:27.819Z,99655.34
2023-04-23T20:21:14.184Z,99646.97
2023-04-23T20:24:00.452Z,99642.47
2023-04-23T20:26:45.623Z,99640.78
2023-04-23T20:29:30.812Z,99641.06
2023-04-23T20:32:16.291Z,99640.78
2023-04-23T20:35:01.190Z,99633.84
2023-04-23T20:37:46.357Z,99629.59
2023-04-23T20:40:34.305Z,99634.19
2023-04-23T20:43:19.498Z,99631.56
2023-04-23T20:46:04.628Z,99622.13
2023-04-23T20:48:53.004Z,99610.13
2023-04-23T20:51:38.255Z,99601.41
2023-04-23T20:54:24.493Z,99610.81
2023-04-23T20:57:09.507Z,99604.13
2023-04-23T20:59:57.817Z,99602.88
2023-04-23T21:02:43.318Z,99599.63
2023-04-23T21:05:28.659Z,99593.78
2023-04-23T21:08:16.316Z,99584.09
2023-04-23T21:11:02.022Z,99578.66
2023-04-23T21:13:48.444Z,99568.25
2023-04-23T21:16:33.934Z,99568.50
2023-04-23T21:19:18.839Z,99570.19
2023-04-23T21:22:04.284Z,99553.03
2023-04-23T21:24:49.152Z,99558.84
2023-04-23T21:27:34.452Z,99555.66
2023-04-23T21:30:47.691Z,99556.50
2023-04-23T21:33:32.713Z,99546.00
2023-04-23T21:36:17.912Z,99548.78
2023-04-23T21:39:03.108Z,99558.34
2023-04-23T21:41:48.294Z,99554.94
2023-04-23T21:44:35.829Z,99551.56
2023-04-23T21:47:21.005Z,99546.31
2023-04-23T21:50:06.362Z,99542.63
2023-04-23T21:52:55.960Z,99537.28
2023-04-23T21:55:40.850Z,99530.09
2023-04-23T21:58:26.045Z,99531.88
2023-04-23T22:01:11.074Z,99539.91
2023-04-23T22:03:58.817Z,99531.78
2023-04-23T22:06:46.280Z,99522.66
2023-04-23T22:09:31.940Z,99513.94
2023-04-23T22:12:16.915Z,99509.72
2023-04-23T22:15:02.019Z,99515.38
2023-04-23T22:17:50.697Z,99513.34
2023-04-23T22:20:38.315Z,99519.19
2023-04-23T22:23:23.235Z,99561.22
2023-04-23T22:26:09.073Z,99575.47
2023-04-23T22:28:53.810Z,99576.06
2023-04-23T22:31:39.123Z,99582.81
2023-04-23T22:34:25.573Z,99578.19
2023-04-23T22:37:11.772Z,99574.34
2023-04-23T22:39:57.128Z,99575.28
2023-04-23T22:42:42.226Z,99565.56
2023-04-23T22:45:27.211Z,99562.34
2023-04-23T22:48:12.493Z,99569.13
2023-04-23T22:50:57.487Z,99564.72
2023-04-23T22:53:42.865Z,99576.16
2023-04-23T22:56:27.833Z,99578.81
2023-04-23T22:59:13.727Z,99566.06
2023-04-23T23:01:59.848Z,99566.81
2023-04-23T23:04:46.150Z,99558.28
2023-04-23T23:07:31.292Z,99551.59
2023-04-23T23:10:16.459Z,99550.22
2023-04-23T23:13:01.977Z,99540.50
2023-04-23T23:15:47.063Z,99537.88
2023-04-23T23:18:32.418Z,99550.94
2023-04-23T23:21:18.239Z,99549.06
2023-04-23T23:24:03.322Z,99538.47
2023-04-23T23:26:48.925Z,99536.53
2023-04-23T23:29:34.151Z,99531.28
2023-04-23T23:32:19.045Z,99539.41
2023-04-23T23:35:04.632Z,99536.50
2023-04-23T23:37:49.656Z,99528.22
2023-04-23T23:40:34.951Z,99524.84
2023-04-23T23:43:19.858Z,99518.88
2023-04-23T23:46:04.877Z,99511.59
2023-04-23T23:48:50.247Z,99520.56
2023-04-23T23:51:35.701Z,99525.41
2023-04-23T23:54:21.137Z,99525.50
2023-04-23T23:57:06.315Z,99521.63
2023-04-23T23:59:51.401Z,99521.34
